createdAt,value
2018-11-13T00:00:54.081Z,10.43
2018-11-13T00:02:57.725Z,11.17
2018-11-13T00:05:02.440Z,11.87
2018-11-13T00:07:06.781Z,12.10
2018-11-13T00:09:10.455Z,11.27
2018-11-13T00:11:13.648Z,9.43
2018-11-13T00:13:17.552Z,11.27
2018-11-13T00:15:21.090Z,11.23
2018-11-13T00:17:24.310Z,12.10
2018-11-13T00:19:27.530Z,11.97
2018-11-13T00:21:30.764Z,11.67
2018-11-13T00:23:34.010Z,10.10
2018-11-13T00:25:38.200Z,11.10
2018-11-13T00:27:42.187Z,11.57
2018-11-13T00:29:45.612Z,11.90
2018-11-13T00:31:48.903Z,10.90
2018-11-13T00:33:52.236Z,14.00
2018-11-13T00:35:55.573Z,13.70
2018-11-13T00:37:58.794Z,14.33
2018-11-13T00:40:02.227Z,12.40
2018-11-13T00:42:06.840Z,12.87
2018-11-13T00:44:11.144Z,11.57
2018-11-13T00:46:14.358Z,11.23
2018-11-13T00:48:17.634Z,13.30
2018-11-13T00:50:21.834Z,13.80
2018-11-13T00:52:25.077Z,13.33
2018-11-13T00:54:28.286Z,12.33
2018-11-13T00:56:31.536Z,12.80
2018-11-13T00:58:34.766Z,8.43
2018-11-13T01:00:38.055Z,12.60
2018-11-13T01:02:41.696Z,11.47
2018-11-13T01:04:44.980Z,14.70
2018-11-13T01:06:48.523Z,17.30
2018-11-13T01:08:52.602Z,12.47
2018-11-13T01:10:55.976Z,9.60
2018-11-13T01:12:59.295Z,17.70
2018-11-13T01:15:02.593Z,14.30
2018-11-13T01:17:06.442Z,14.77
2018-11-13T01:19:10.261Z,16.13
2018-11-13T01:21:13.551Z,14.63
2018-11-13T01:23:16.724Z,17.07
2018-11-13T01:25:20.012Z,17.17
2018-11-13T01:27:23.448Z,14.63
2018-11-13T01:29:26.664Z,16.53
2018-11-13T01:31:29.888Z,15.60
2018-11-13T01:33:33.182Z,15.83
2018-11-13T01:35:36.509Z,18.30
2018-11-13T01:37:40.676Z,16.40
2018-11-13T01:39:44.215Z,16.57
2018-11-13T01:41:47.737Z,16.30
2018-11-13T01:43:51.016Z,18.90
2018-11-13T01:45:54.405Z,17.00
2018-11-13T01:47:57.596Z,18.23
2018-11-13T01:50:00.982Z,17.80
2018-11-13T01:52:04.472Z,16.97
2018-11-13T01:54:08.012Z,18.17
2018-11-13T01:56:11.347Z,16.43
2018-11-13T01:58:15.129Z,17.90
2018-11-13T02:00:22.151Z,17.80
2018-11-13T02:02:25.848Z,20.53
2018-11-13T02:04:29.084Z,18.80
2018-11-13T02:06:32.429Z,18.60
2018-11-13T02:08:37.224Z,17.53
2018-11-13T02:10:40.434Z,20.17
2018-11-13T02:12:43.705Z,12.30
2018-11-13T02:14:47.228Z,21.43
2018-11-13T02:16:50.607Z,19.20
2018-11-13T02:18:53.813Z,17.37
2018-11-13T02:20:57.344Z,20.80
2018-11-13T02:23:00.628Z,20.50
2018-11-13T02:25:04.004Z,18.97
2018-11-13T02:27:07.988Z,18.17
2018-11-13T02:29:11.518Z,17.40
2018-11-13T02:31:14.735Z,17.30
2018-11-13T02:33:17.986Z,17.13
2018-11-13T02:35:21.255Z,20.30
2018-11-13T02:37:24.577Z,19.37
2018-11-13T02:39:27.800Z,21.10
2018-11-13T02:41:30.989Z,12.50
2018-11-13T02:43:34.157Z,20.43
2018-11-13T02:45:38.793Z,20.23
2018-11-13T02:47:42.305Z,21.87
2018-11-13T02:49:45.684Z,20.93
2018-11-13T02:51:49.181Z,20.03
2018-11-13T02:53:52.635Z,20.67
2018-11-13T02:55:55.851Z,21.27
2018-11-13T02:57:59.433Z,20.73
2018-11-13T03:00:04.417Z,19.50
2018-11-13T03:02:08.411Z,21.00
2018-11-13T03:04:11.617Z,20.07
2018-11-13T03:06:14.932Z,19.97
2018-11-13T03:08:18.081Z,19.97
2018-11-13T03:10:21.900Z,19.90
2018-11-13T03:12:25.620Z,18.20
2018-11-13T03:14:29.144Z,18.87
2018-11-13T03:16:32.735Z,20.90
2018-11-13T03:18:35.963Z,20.80
2018-11-13T03:20:39.149Z,19.40
2018-11-13T03:22:43.448Z,18.47
2018-11-13T03:24:46.811Z,21.00
2018-11-13T03:26:50.078Z,20.70
2018-11-13T03:28:53.469Z,21.30
2018-11-13T03:30:56.929Z,20.67
2018-11-13T03:33:00.281Z,22.47
2018-11-13T03:35:03.834Z,20.10
2018-11-13T03:37:07.454Z,23.93
2018-11-13T03:39:11.357Z,19.10
2018-11-13T03:41:14.602Z,21.20
2018-11-13T03:43:17.790Z,19.63
2018-11-13T03:45:20.996Z,20.90
2018-11-13T03:47:24.198Z,19.73
2018-11-13T03:49:28.045Z,20.80
2018-11-13T03:51:31.344Z,20.00
2018-11-13T03:53:34.586Z,20.87
2018-11-13T03:55:38.014Z,20.00
2018-11-13T03:57:42.452Z,19.37
2018-11-13T03:59:45.648Z,19.90
2018-11-13T04:01:48.881Z,20.50
2018-11-13T04:03:52.544Z,21.27
2018-11-13T04:05:56.072Z,19.23
2018-11-13T04:07:59.603Z,21.23
2018-11-13T04:10:03.258Z,20.07
2018-11-13T04:12:06.983Z,20.07
2018-11-13T04:14:10.839Z,21.63
2018-11-13T04:16:14.365Z,20.33
2018-11-13T04:18:18.080Z,20.57
2018-11-13T04:20:22.486Z,22.10
2018-11-13T04:22:26.238Z,20.93
2018-11-13T04:24:29.761Z,21.30
2018-11-13T04:26:33.287Z,21.23
2018-11-13T04:28:36.904Z,21.40
2018-11-13T04:30:40.711Z,20.87
2018-11-13T04:32:44.131Z,20.67
2018-11-13T04:34:47.358Z,21.87
2018-11-13T04:36:51.088Z,22.13
2018-11-13T04:38:54.256Z,21.20
2018-11-13T04:40:57.453Z,23.20
2018-11-13T04:43:00.750Z,19.67
2018-11-13T04:45:04.512Z,20.60
2018-11-13T04:47:08.499Z,20.03
2018-11-13T04:49:11.664Z,19.90
2018-11-13T04:51:14.896Z,20.27
2018-11-13T04:53:18.076Z,19.10
2018-11-13T04:55:21.590Z,18.97
2018-11-13T04:57:25.020Z,20.00
2018-11-13T04:59:28.196Z,20.00
2018-11-13T05:01:31.380Z,19.83
2018-11-13T05:03:34.595Z,21.53
2018-11-13T05:05:37.794Z,19.33
2018-11-13T05:07:41.392Z,20.60
2018-11-13T05:09:44.618Z,19.40
2018-11-13T05:11:47.839Z,21.67
2018-11-13T05:13:51.118Z,20.67
2018-11-13T05:15:54.509Z,19.83
2018-11-13T05:17:57.748Z,18.60
2018-11-13T05:20:01.689Z,18.90
2018-11-13T05:22:05.798Z,20.00
2018-11-13T05:24:09.035Z,18.47
2018-11-13T05:26:12.482Z,21.10
2018-11-13T05:28:16.296Z,21.33
2018-11-13T05:30:20.862Z,20.87
2018-11-13T05:32:24.192Z,20.53
2018-11-13T05:34:27.808Z,21.93
2018-11-13T05:36:31.348Z,22.40
2018-11-13T05:38:34.565Z,22.20
2018-11-13T05:40:37.800Z,19.97
2018-11-13T05:42:41.697Z,21.23
2018-11-13T05:44:44.940Z,21.23
2018-11-13T05:46:48.673Z,21.70
2018-11-13T05:48:52.001Z,21.20
2018-11-13T05:50:55.699Z,21.40
2018-11-13T05:52:58.889Z,21.37
2018-11-13T05:55:02.088Z,23.53
2018-11-13T05:57:05.486Z,21.30
2018-11-13T05:59:09.031Z,21.77
2018-11-13T06:01:12.212Z,20.50
2018-11-13T06:03:15.477Z,20.87
2018-11-13T06:05:20.116Z,18.97
2018-11-13T06:07:23.324Z,20.57
2018-11-13T06:09:26.552Z,19.33
2018-11-13T06:11:29.753Z,21.97
2018-11-13T06:13:32.972Z,21.33
2018-11-13T06:15:36.161Z,19.83
2018-11-13T06:17:39.684Z,20.63
2018-11-13T06:19:43.756Z,18.77
2018-11-13T06:21:46.948Z,19.17
2018-11-13T06:23:50.242Z,18.93
2018-11-13T06:25:53.704Z,21.07
2018-11-13T06:27:56.936Z,15.87
2018-11-13T06:30:00.208Z,19.07
2018-11-13T06:32:03.732Z,18.40
2018-11-13T06:34:06.963Z,20.10
2018-11-13T06:36:10.208Z,20.40
2018-11-13T06:38:13.449Z,18.93
2018-11-13T06:40:17.224Z,16.40
2018-11-13T06:42:20.504Z,18.10
2018-11-13T06:44:23.681Z,16.70
2018-11-13T06:46:26.856Z,19.50
2018-11-13T06:48:30.137Z,19.80
2018-11-13T06:50:33.347Z,18.27
2018-11-13T06:52:37.128Z,20.27
2018-11-13T06:54:54.328Z,20.00
2018-11-13T06:56:57.473Z,16.40
2018-11-13T06:59:00.689Z,18.27
2018-11-13T07:01:03.907Z,18.27
2018-11-13T07:03:07.080Z,21.47
2018-11-13T07:05:12.431Z,16.70
2018-11-13T07:07:15.828Z,20.00
2018-11-13T07:09:25.380Z,20.27
2018-11-13T07:11:28.920Z,19.80
2018-11-13T07:13:32.144Z,21.57
2018-11-13T07:15:35.395Z,19.03
2018-11-13T07:17:38.664Z,22.17
2018-11-13T07:19:41.941Z,18.83
2018-11-13T07:21:45.416Z,20.10
2018-11-13T07:23:48.688Z,21.90
2018-11-13T07:25:52.025Z,21.17
2018-11-13T07:27:55.471Z,21.50
2018-11-13T07:29:59.371Z,17.77
2018-11-13T07:32:02.957Z,19.87
2018-11-13T07:34:06.212Z,20.13
2018-11-13T07:36:09.634Z,18.30
2018-11-13T07:38:12.996Z,20.67
2018-11-13T07:40:16.696Z,21.20
2018-11-13T07:42:20.138Z,18.07
2018-11-13T07:44:23.672Z,22.07
2018-11-13T07:46:26.941Z,20.77
2018-11-13T07:48:30.528Z,18.20
2018-11-13T07:50:33.755Z,18.57
2018-11-13T07:52:37.091Z,19.30
2018-11-13T07:54:40.352Z,20.10
2018-11-13T07:56:43.629Z,19.63
2018-11-13T07:58:46.836Z,17.10
2018-11-13T08:00:50.624Z,19.50
2018-11-13T08:02:55.094Z,17.73
2018-11-13T08:04:58.321Z,18.40
2018-11-13T08:07:01.652Z,17.50
2018-11-13T08:09:06.997Z,18.90
2018-11-13T08:11:10.229Z,17.80
2018-11-13T08:13:13.867Z,17.97
2018-11-13T08:15:18.060Z,17.10
2018-11-13T08:17:21.335Z,19.93
2018-11-13T08:19:24.621Z,16.60
2018-11-13T08:21:27.811Z,17.57
2018-11-13T08:23:31.107Z,18.27
2018-11-13T08:25:34.524Z,15.27
2018-11-13T08:27:39.126Z,16.30
2018-11-13T08:29:42.523Z,18.07
2018-11-13T08:31:46.009Z,15.07
2018-11-13T08:33:49.489Z,17.03
2018-11-13T08:35:52.713Z,14.47
2018-11-13T08:37:56.110Z,14.47
2018-11-13T08:39:59.687Z,14.43
2018-11-13T08:42:03.608Z,17.63
2018-11-13T08:44:07.879Z,16.60
2018-11-13T08:46:11.666Z,16.03
2018-11-13T08:48:15.201Z,14.17
2018-11-13T08:50:18.576Z,7.10
2018-11-13T08:52:21.913Z,11.80
2018-11-13T08:54:25.469Z,13.37
2018-11-13T08:56:28.750Z,12.70
2018-11-13T08:58:32.415Z,14.80
2018-11-13T09:00:36.148Z,12.07
2018-11-13T09:02:39.836Z,9.80
2018-11-13T09:04:43.125Z,15.07
2018-11-13T09:06:46.433Z,14.87
2018-11-13T09:08:49.645Z,14.70
2018-11-13T09:10:53.186Z,12.37
2018-11-13T09:12:56.375Z,13.23
2018-11-13T09:14:59.595Z,12.00
2018-11-13T09:17:02.927Z,12.80
2018-11-13T09:19:06.605Z,12.60
2018-11-13T09:21:10.346Z,12.17
2018-11-13T09:23:15.327Z,13.60
2018-11-13T09:25:20.183Z,10.77
2018-11-13T09:27:23.658Z,9.13
2018-11-13T09:29:27.366Z,11.53
2018-11-13T09:31:30.739Z,8.70
2018-11-13T09:33:34.474Z,9.47
2018-11-13T09:35:37.960Z,7.20
2018-11-13T09:37:41.808Z,9.67
2018-11-13T09:39:45.520Z,9.90
2018-11-13T09:41:48.769Z,11.03
2018-11-13T09:43:52.011Z,9.53
2018-11-13T09:45:55.301Z,7.73
2018-11-13T09:47:58.728Z,8.60
2018-11-13T09:50:01.982Z,7.97
2018-11-13T09:52:05.804Z,10.33
2018-11-13T09:54:09.701Z,11.90
2018-11-13T09:56:12.938Z,9.00
2018-11-13T09:58:16.304Z,8.83
2018-11-13T10:00:20.950Z,7.13
2018-11-13T10:02:24.738Z,8.47
2018-11-13T10:04:28.221Z,11.60
2018-11-13T10:06:31.174Z,8.43
2018-11-13T10:08:34.508Z,8.07
2018-11-13T10:10:37.701Z,11.20
2018-11-13T10:12:41.117Z,9.73
2018-11-13T10:14:44.378Z,11.63
2018-11-13T10:16:47.956Z,14.63
2018-11-13T10:18:51.271Z,8.50
2018-11-13T10:20:54.503Z,8.60
2018-11-13T10:22:58.481Z,11.17
2018-11-13T10:25:02.176Z,11.27
2018-11-13T10:27:06.068Z,12.97
2018-11-13T10:29:09.473Z,14.30
2018-11-13T10:31:12.713Z,10.43
2018-11-13T10:33:16.187Z,7.83
2018-11-13T10:35:21.380Z,14.00
2018-11-13T10:37:24.567Z,12.07
2018-11-13T10:39:28.152Z,10.10
2018-11-13T10:41:31.517Z,12.57
2018-11-13T10:43:34.824Z,13.20
2018-11-13T10:45:38.036Z,13.40
2018-11-13T10:47:41.716Z,14.17
2018-11-13T10:49:44.912Z,9.60
2018-11-13T10:51:48.137Z,15.00
2018-11-13T10:53:51.353Z,13.90
2018-11-13T10:55:54.594Z,10.67
2018-11-13T10:57:57.860Z,9.93
2018-11-13T11:00:01.136Z,14.50
2018-11-13T11:02:10.214Z,13.80
2018-11-13T11:04:18.990Z,13.27
2018-11-13T11:06:22.401Z,14.07
2018-11-13T11:08:25.991Z,9.83
2018-11-13T11:10:29.404Z,12.70
2018-11-13T11:12:32.618Z,10.90
2018-11-13T11:14:35.853Z,11.17
2018-11-13T11:16:39.161Z,12.00
2018-11-13T11:18:42.719Z,13.40
2018-11-13T11:20:46.335Z,14.67
2018-11-13T11:22:49.624Z,10.30
2018-11-13T11:24:53.004Z,12.67
2018-11-13T11:26:56.260Z,7.00
2018-11-13T11:28:59.520Z,11.63
2018-11-13T11:31:03.106Z,9.27
2018-11-13T11:33:06.863Z,10.60
2018-11-13T11:35:10.419Z,11.10
2018-11-13T11:37:13.707Z,10.17
2018-11-13T11:39:17.526Z,10.00
2018-11-13T11:41:20.842Z,11.00
2018-11-13T11:43:24.093Z,10.20
2018-11-13T11:45:27.327Z,10.23
2018-11-13T11:47:31.172Z,7.83
2018-11-13T11:49:34.588Z,9.40
2018-11-13T11:51:38.154Z,9.27
2018-11-13T11:53:41.613Z,9.33
2018-11-13T11:55:45.024Z,8.90
2018-11-13T11:57:48.273Z,9.57
2018-11-13T11:59:51.507Z,8.40
2018-11-13T12:01:54.724Z,8.97
2018-11-13T12:03:58.268Z,7.87
2018-11-13T12:06:01.861Z,7.30
2018-11-13T12:08:05.546Z,10.27
2018-11-13T12:10:10.854Z,7.17
2018-11-13T12:12:14.150Z,9.10
2018-11-13T12:14:17.500Z,10.00
2018-11-13T12:16:21.082Z,8.20
2018-11-13T12:18:24.336Z,5.97
2018-11-13T12:20:27.923Z,3.90
2018-11-13T12:22:31.313Z,6.20
2018-11-13T12:24:34.527Z,6.97
2018-11-13T12:26:37.744Z,7.47
2018-11-13T12:28:41.022Z,7.40
2018-11-13T12:30:44.232Z,8.20
2018-11-13T12:32:48.482Z,5.30
2018-11-13T12:34:52.144Z,6.80
2018-11-13T12:36:55.377Z,5.73
2018-11-13T12:38:58.592Z,5.83
2018-11-13T12:41:01.929Z,5.60
2018-11-13T12:43:05.992Z,6.53
2018-11-13T12:45:10.154Z,6.37
2018-11-13T12:47:13.692Z,3.20
2018-11-13T12:49:16.949Z,5.40
2018-11-13T12:51:25.830Z,6.13
2018-11-13T12:53:29.496Z,5.10
2018-11-13T12:55:32.888Z,6.30
2018-11-13T12:57:36.297Z,5.40
2018-11-13T12:59:40.183Z,6.40
2018-11-13T13:01:43.465Z,4.40
2018-11-13T13:03:47.296Z,5.50
2018-11-13T13:05:50.561Z,6.07
2018-11-13T13:07:53.843Z,5.60
2018-11-13T13:09:58.200Z,4.77
2018-11-13T13:12:01.738Z,5.23
2018-11-13T13:14:11.157Z,4.93
2018-11-13T13:16:17.174Z,5.70
2018-11-13T13:18:21.558Z,3.47
2018-11-13T13:20:25.910Z,6.50
2018-11-13T13:22:29.851Z,5.03
2018-11-13T13:24:34.593Z,5.80
2018-11-13T13:26:39.753Z,7.43
2018-11-13T13:28:43.834Z,4.47
2018-11-13T13:30:48.008Z,7.27
2018-11-13T13:32:52.376Z,6.90
2018-11-13T13:34:59.365Z,6.40
2018-11-13T13:37:09.799Z,5.93
2018-11-13T13:39:14.090Z,7.40
2018-11-13T13:41:18.029Z,7.20
2018-11-13T13:43:23.240Z,6.07
2018-11-13T13:45:27.315Z,7.37
2018-11-13T13:47:31.548Z,6.43
2018-11-13T13:49:35.677Z,5.20
2018-11-13T13:51:39.051Z,2.93
2018-11-13T13:53:43.196Z,2.90
2018-11-13T13:55:47.148Z,1.80
2018-11-13T13:57:50.608Z,1.53
2018-11-13T13:59:54.285Z,1.30
2018-11-13T14:01:59.025Z,1.87
2018-11-13T14:04:02.199Z,1.43
2018-11-13T14:06:06.591Z,1.73
2018-11-13T14:08:11.014Z,2.03
2018-11-13T14:10:14.320Z,1.50
2018-11-13T14:12:17.976Z,2.30
2018-11-13T14:14:21.580Z,2.27
2018-11-13T14:16:24.770Z,3.47
2018-11-13T14:18:28.301Z,3.00
2018-11-13T14:20:31.831Z,4.00
2018-11-13T14:22:35.092Z,6.93
2018-11-13T14:24:38.758Z,3.83
2018-11-13T14:26:41.948Z,3.73
2018-11-13T14:28:45.256Z,6.77
2018-11-13T14:30:48.833Z,5.87
2018-11-13T14:32:53.645Z,6.37
2018-11-13T14:34:57.838Z,5.03
2018-11-13T14:37:01.119Z,4.00
2018-11-13T14:39:06.365Z,5.13
2018-11-13T14:41:09.638Z,5.03
2018-11-13T14:43:13.133Z,3.90
2018-11-13T14:45:17.545Z,4.30
2018-11-13T14:47:20.754Z,4.07
2018-11-13T14:49:24.294Z,4.07
2018-11-13T14:51:27.685Z,4.87
2018-11-13T14:53:31.058Z,3.50
2018-11-13T14:55:36.076Z,5.17
2018-11-13T14:57:39.765Z,5.30
2018-11-13T14:59:42.980Z,6.47
2018-11-13T15:01:46.261Z,5.70
2018-11-13T15:03:49.595Z,4.30
2018-11-13T15:05:53.589Z,3.77
2018-11-13T15:07:58.539Z,4.40
2018-11-13T15:10:03.160Z,4.33
2018-11-13T15:12:06.692Z,4.03
2018-11-13T15:14:09.899Z,3.47
2018-11-13T15:16:13.198Z,5.33
2018-11-13T15:18:17.102Z,6.07
2018-11-13T15:20:20.312Z,4.73
2018-11-13T15:22:23.712Z,4.27
2018-11-13T15:24:27.051Z,3.93
2018-11-13T15:26:30.429Z,3.93
2018-11-13T15:28:33.620Z,5.77
2018-11-13T15:30:38.828Z,4.80
2018-11-13T15:32:42.466Z,5.67
2018-11-13T15:34:45.669Z,5.10
2018-11-13T15:36:49.365Z,7.20
2018-11-13T15:38:52.897Z,3.97
2018-11-13T15:40:56.415Z,4.20
2018-11-13T15:42:59.985Z,4.63
2018-11-13T15:45:03.567Z,5.57
2018-11-13T15:47:06.880Z,3.33
2018-11-13T15:49:10.144Z,5.37
2018-11-13T15:51:13.660Z,6.07
2018-11-13T15:53:16.908Z,4.57
2018-11-13T15:55:20.331Z,4.00
2018-11-13T15:57:23.625Z,4.33
2018-11-13T15:59:26.913Z,4.13
2018-11-13T16:01:30.532Z,4.83
2018-11-13T16:03:37.421Z,5.10
2018-11-13T16:05:42.884Z,4.03
2018-11-13T16:07:46.117Z,4.30
2018-11-13T16:09:49.376Z,4.73
2018-11-13T16:11:52.794Z,4.30
2018-11-13T16:13:56.366Z,3.37
2018-11-13T16:15:59.535Z,4.50
2018-11-13T16:18:05.563Z,2.90
2018-11-13T16:20:09.237Z,3.37
2018-11-13T16:22:12.473Z,4.93
2018-11-13T16:24:15.666Z,4.10
2018-11-13T16:26:18.912Z,3.53
2018-11-13T16:28:22.420Z,3.50
2018-11-13T16:30:27.241Z,3.70
2018-11-13T16:32:30.547Z,3.53
2018-11-13T16:34:33.957Z,3.60
2018-11-13T16:36:37.586Z,2.70
2018-11-13T16:38:41.513Z,3.20
2018-11-13T16:40:44.661Z,4.23
2018-11-13T16:42:47.921Z,3.97
2018-11-13T16:44:52.181Z,3.87
2018-11-13T16:46:54.900Z,4.40
2018-11-13T16:48:58.168Z,3.40
2018-11-13T16:51:01.400Z,3.47
2018-11-13T16:53:05.081Z,3.23
2018-11-13T16:55:08.781Z,3.70
2018-11-13T16:57:15.271Z,3.93
2018-11-13T16:59:18.500Z,2.63
2018-11-13T17:01:22.147Z,3.00
2018-11-13T17:03:25.507Z,3.63
2018-11-13T17:05:29.565Z,3.40
2018-11-13T17:07:32.774Z,3.17
2018-11-13T17:09:36.012Z,3.03
2018-11-13T17:11:39.664Z,2.60
2018-11-13T17:13:43.079Z,3.30
2018-11-13T17:15:46.815Z,3.23
2018-11-13T17:17:51.523Z,2.40
2018-11-13T17:19:54.747Z,3.40
2018-11-13T17:21:58.434Z,3.00
2018-11-13T17:24:02.601Z,3.20
2018-11-13T17:26:06.488Z,2.30
2018-11-13T17:28:09.567Z,2.87
2018-11-13T17:30:16.856Z,4.00
2018-11-13T17:32:20.243Z,3.37
2018-11-13T17:34:23.553Z,2.67
2018-11-13T17:36:27.319Z,3.10
2018-11-13T17:38:30.524Z,2.17
2018-11-13T17:40:35.681Z,3.27
2018-11-13T17:42:39.284Z,3.80
2018-11-13T17:44:42.586Z,1.70
2018-11-13T17:46:45.816Z,2.53
2018-11-13T17:48:49.697Z,2.47
2018-11-13T17:50:52.944Z,3.50
2018-11-13T17:52:56.127Z,1.80
2018-11-13T17:54:59.418Z,2.53
2018-11-13T17:57:02.616Z,2.53
2018-11-13T17:59:05.932Z,3.00
2018-11-13T18:01:09.445Z,4.50
2018-11-13T18:03:14.604Z,3.60
2018-11-13T18:05:19.214Z,2.30
2018-11-13T18:07:22.760Z,3.20
2018-11-13T18:09:26.553Z,3.10
2018-11-13T18:11:29.841Z,2.70
2018-11-13T18:13:33.439Z,3.03
2018-11-13T18:15:36.904Z,2.90
2018-11-13T18:17:40.264Z,2.60
2018-11-13T18:19:43.493Z,2.83
2018-11-13T18:21:47.148Z,3.23
2018-11-13T18:23:50.547Z,2.40
2018-11-13T18:25:54.072Z,2.00
2018-11-13T18:27:58.910Z,3.87
2018-11-13T18:30:02.257Z,1.90
2018-11-13T18:32:05.825Z,2.40
2018-11-13T18:34:09.044Z,2.97
2018-11-13T18:36:12.264Z,1.87
2018-11-13T18:38:16.150Z,1.93
2018-11-13T18:40:20.622Z,2.40
2018-11-13T18:42:23.840Z,2.87
2018-11-13T18:44:29.589Z,2.50
2018-11-13T18:46:33.755Z,2.37
2018-11-13T18:48:37.102Z,2.07
2018-11-13T18:50:41.828Z,2.50
2018-11-13T18:52:45.638Z,2.20
2018-11-13T18:54:49.857Z,2.10
2018-11-13T18:56:53.151Z,2.03
2018-11-13T18:58:56.805Z,2.30
2018-11-13T19:01:00.188Z,2.20
2018-11-13T19:03:04.433Z,2.43
2018-11-13T19:05:08.388Z,2.00
2018-11-13T19:07:11.732Z,2.60
2018-11-13T19:09:14.914Z,3.10
2018-11-13T19:11:18.174Z,1.63
2018-11-13T19:13:25.409Z,3.10
2018-11-13T19:15:30.120Z,2.20
2018-11-13T19:17:35.135Z,1.80
2018-11-13T19:19:39.325Z,3.00
2018-11-13T19:21:42.966Z,2.43
2018-11-13T19:23:46.411Z,1.80
2018-11-13T19:25:50.326Z,2.20
2018-11-13T19:27:54.788Z,2.07
2018-11-13T19:29:58.371Z,2.30
2018-11-13T19:32:01.769Z,1.90
2018-11-13T19:34:05.366Z,2.70
2018-11-13T19:36:09.293Z,2.80
2018-11-13T19:38:12.621Z,2.57
2018-11-13T19:40:21.272Z,1.20
2018-11-13T19:42:24.692Z,2.40
2018-11-13T19:44:27.962Z,3.10
2018-11-13T19:46:31.722Z,2.60
2018-11-13T19:48:35.248Z,2.23
2018-11-13T19:50:38.781Z,2.43
2018-11-13T19:52:42.444Z,1.73
2018-11-13T19:54:45.704Z,2.77
2018-11-13T19:56:48.936Z,2.90
2018-11-13T19:58:52.347Z,2.10
2018-11-13T20:00:55.728Z,2.10
2018-11-13T20:03:00.418Z,2.57
2018-11-13T20:05:04.156Z,2.70
2018-11-13T20:07:07.440Z,2.40
2018-11-13T20:09:11.173Z,2.53
2018-11-13T20:11:14.562Z,2.53
2018-11-13T20:13:17.804Z,2.30
2018-11-13T20:15:22.442Z,1.53
2018-11-13T20:17:25.930Z,2.10
2018-11-13T20:19:29.377Z,1.87
2018-11-13T20:21:32.856Z,2.40
2018-11-13T20:23:36.225Z,1.60
2018-11-13T20:25:39.425Z,3.40
2018-11-13T20:27:43.209Z,1.60
2018-11-13T20:29:46.552Z,1.73
2018-11-13T20:31:49.845Z,2.43
2018-11-13T20:33:53.161Z,2.07
2018-11-13T20:35:56.444Z,3.07
2018-11-13T20:38:00.684Z,2.47
2018-11-13T20:40:05.285Z,2.70
2018-11-13T20:42:15.399Z,1.73
2018-11-13T20:44:18.815Z,1.80
2018-11-13T20:46:22.015Z,2.20
2018-11-13T20:48:25.680Z,2.03
2018-11-13T20:50:30.226Z,2.30
2018-11-13T20:52:33.472Z,2.70
2018-11-13T20:54:36.698Z,1.97
2018-11-13T20:56:39.956Z,2.13
2018-11-13T20:58:43.243Z,2.27
2018-11-13T21:00:46.849Z,2.90
2018-11-13T21:02:50.217Z,3.13
2018-11-13T21:04:53.629Z,2.03
2018-11-13T21:06:57.100Z,2.40
2018-11-13T21:09:00.328Z,1.40
2018-11-13T21:11:04.165Z,2.73
2018-11-13T21:13:08.260Z,2.03
2018-11-13T21:15:13.465Z,1.93
2018-11-13T21:17:17.041Z,1.80
2018-11-13T21:19:20.385Z,2.20
2018-11-13T21:21:23.613Z,2.47
2018-11-13T21:23:27.040Z,2.97
2018-11-13T21:25:30.672Z,2.87
2018-11-13T21:27:34.719Z,2.10
2018-11-13T21:29:38.017Z,1.47
2018-11-13T21:31:41.327Z,2.53
2018-11-13T21:33:44.911Z,2.40
2018-11-13T21:35:48.099Z,2.40
2018-11-13T21:37:53.166Z,2.13
2018-11-13T21:39:56.380Z,2.23
2018-11-13T21:41:59.688Z,2.50
2018-11-13T21:44:03.192Z,2.53
2018-11-13T21:46:06.676Z,2.00
2018-11-13T21:48:09.993Z,1.83
2018-11-13T21:50:14.988Z,2.50
2018-11-13T21:52:21.176Z,2.50
2018-11-13T21:54:24.409Z,3.00
2018-11-13T21:56:27.921Z,2.40
2018-11-13T21:58:31.344Z,3.07
2018-11-13T22:00:34.873Z,2.27
2018-11-13T22:02:38.352Z,2.60
2018-11-13T22:04:43.860Z,2.37
2018-11-13T22:06:48.584Z,2.73
2018-11-13T22:08:52.118Z,2.23
2018-11-13T22:10:55.332Z,1.20
2018-11-13T22:12:58.848Z,2.90
2018-11-13T22:15:02.139Z,2.17
2018-11-13T22:17:06.218Z,2.70
2018-11-13T22:19:09.932Z,3.37
2018-11-13T22:21:13.152Z,3.50
2018-11-13T22:23:16.881Z,3.30
2018-11-13T22:25:22.404Z,2.90
2018-11-13T22:27:25.652Z,2.43
2018-11-13T22:29:29.455Z,2.67
2018-11-13T22:31:32.784Z,1.50
2018-11-13T22:33:36.048Z,3.93
2018-11-13T22:35:39.324Z,3.40
2018-11-13T22:37:42.840Z,3.67
2018-11-13T22:39:46.086Z,3.27
2018-11-13T22:41:49.456Z,3.47
2018-11-13T22:43:52.683Z,2.87
2018-11-13T22:45:55.852Z,1.93
2018-11-13T22:47:59.484Z,2.70
2018-11-13T22:50:03.025Z,2.97
2018-11-13T22:52:07.262Z,2.87
2018-11-13T22:54:10.483Z,3.53
2018-11-13T22:56:14.220Z,3.30
2018-11-13T22:58:17.457Z,2.73
2018-11-13T23:00:37.034Z,3.60
2018-11-13T23:02:40.252Z,3.40
2018-11-13T23:04:43.441Z,2.43
2018-11-13T23:06:46.708Z,4.27
2018-11-13T23:08:49.880Z,4.60
2018-11-13T23:10:53.409Z,3.70
2018-11-13T23:12:56.671Z,2.77
2018-11-13T23:15:00.114Z,3.57
2018-11-13T23:17:03.804Z,4.00
2018-11-13T23:19:07.225Z,2.70
2018-11-13T23:21:10.408Z,4.80
2018-11-13T23:23:13.604Z,3.40
2018-11-13T23:25:18.765Z,3.40
2018-11-13T23:27:22.293Z,2.90
2018-11-13T23:29:26.301Z,3.53
2018-11-13T23:31:29.819Z,2.83
2018-11-13T23:33:32.948Z,4.17
2018-11-13T23:35:36.795Z,5.03
2018-11-13T23:37:40.729Z,3.40
2018-11-13T23:39:44.476Z,5.00
2018-11-13T23:41:47.689Z,3.23
2018-11-13T23:43:50.900Z,4.37
2018-11-13T23:45:54.068Z,2.73
2018-11-13T23:47:57.333Z,3.50
2018-11-13T23:50:00.894Z,4.83
2018-11-13T23:52:04.433Z,2.17
2018-11-13T23:54:07.961Z,3.90
2018-11-13T23:56:11.144Z,3.03
2018-11-13T23:58:14.340Z,2.90
